Pierre Rgnl Information

FAA: PIR - ICAO: KPIR

Pierre Rgnl (Airport) Location

State South Dakota
County Hughes
City Pierre
Pierre Rgnl (Airport) is 3 miles east of Pierre, SD.
Latitude 44-22-57.7000N
Longitude 100-17-09.5000W
Elevation 1,744ft

Pierre Rgnl METARs

METAR KPIR 190753Z AUTO 06005KT 10SM CLR 10/04 A2965 RMK AO2 SLP034 T01000044
Altimeter 29.65"
Temperature 10.0°C (50.0°F)
Wind 60° at 5KT
Clouds Skies are clear.
Visibility 10.0mi
Time observed: 2022-05-19T07:53:00Z

Pierre Rgnl (Airport) Details

Status Operational
Activation December 1937
Ownership Public
Usage Public
Chart OMAHA
ATC on-site No
Beacon schedule sunset-sunrise
Beacon color clear green

Pierre Rgnl (Airport) Contacts

Owner CITY OF PIERRE
Owner address 3800 AIRPORT ROAD, SUITE 209, PIERRE, SD 57501
Owner phone 605-773-7447
Manager LORNIE HACH
Manager address PO BOX 392, MCLAUGHLIN, SD 57642
Manager phone 605-823-4428

Pierre Rgnl Radio Frequencies

Pierre Rgnl (Airport) Radio Frequencies

UNICOM 122.95
Common traffic advisory frequency (CTAF) 122.7